createdAt,value
2023-04-04T00:01:46.588Z,68.8
2023-04-04T00:03:52.162Z,69.2
2023-04-04T00:05:49.527Z,69.5
2023-04-04T00:07:47.076Z,69.7
2023-04-04T00:09:44.616Z,70
2023-04-04T00:11:42.120Z,70.3
2023-04-04T00:13:39.652Z,70.6
2023-04-04T00:17:42.609Z,72.2
2023-04-04T00:21:37.750Z,72.5
2023-04-04T00:23:35.268Z,72.5
2023-04-04T00:25:32.821Z,72.7
2023-04-04T00:27:30.330Z,72.6
2023-04-04T00:29:27.857Z,72.6
2023-04-04T00:31:33.328Z,73.2
2023-04-04T00:33:30.869Z,73.6
2023-04-04T00:35:28.374Z,73.8
2023-04-04T00:37:25.866Z,73.8
2023-04-04T00:39:23.392Z,73.7
2023-04-04T00:43:18.439Z,73.4
2023-04-04T00:49:18.892Z,73.3
2023-04-04T00:50:21.592Z,73.4
2023-04-04T00:52:19.103Z,73.3
2023-04-04T00:54:16.629Z,73.3
2023-04-04T00:56:14.178Z,73.3
2023-04-04T00:58:19.560Z,73.3
2023-04-04T01:00:17.084Z,73.3
2023-04-04T01:02:14.584Z,73.4
2023-04-04T01:06:09.603Z,73.7
2023-04-04T01:08:07.112Z,73.9
2023-04-04T01:10:04.645Z,74
2023-04-04T01:12:10.070Z,74.8
2023-04-04T01:23:55.127Z,76.5
2023-04-04T01:27:58.049Z,77
2023-04-04T01:31:53.092Z,77.8
2023-04-04T01:33:50.597Z,78.2
2023-04-04T01:35:48.185Z,78.5
2023-04-04T01:37:45.615Z,79
2023-04-04T01:39:51.026Z,79.9
2023-04-04T01:41:48.563Z,80.2
2023-04-04T01:43:46.086Z,80.5
2023-04-04T01:46:09.454Z,80.8
2023-04-04T01:48:12.033Z,81
2023-04-04T01:50:09.503Z,81
2023-04-04T01:54:12.431Z,81.6
2023-04-04T01:56:09.946Z,82.1
2023-04-04T01:58:07.448Z,82.4
2023-04-04T02:00:04.952Z,82.7
2023-04-04T02:03:59.975Z,82.9
2023-04-04T02:06:05.341Z,83.1
2023-04-04T02:08:02.874Z,83.1
2023-04-04T02:10:00.366Z,83.2
2023-04-04T02:17:50.438Z,83.9
2023-04-04T02:21:53.319Z,84.6
2023-04-04T02:23:51.072Z,84.9
2023-04-04T02:25:48.297Z,85.2
2023-04-04T02:27:45.800Z,85.5
2023-04-04T02:33:47.746Z,86.6
2023-04-04T02:37:42.749Z,87
2023-04-04T02:38:45.552Z,87.2
2023-04-04T02:40:43.221Z,87.5
2023-04-04T02:42:40.534Z,87.8
2023-04-04T02:46:43.470Z,88.7
2023-04-04T02:50:38.684Z,89.3
2023-04-04T02:52:35.913Z,89.5
2023-04-04T02:56:30.895Z,89.9
2023-04-04T03:00:33.785Z,90.1
2023-04-04T03:02:31.446Z,90.2
2023-04-04T03:04:28.770Z,90.3
2023-04-04T03:06:26.284Z,90.5
2023-04-04T03:10:21.240Z,90.8
2023-04-04T03:12:18.763Z,91
2023-04-04T03:14:24.126Z,91.3
2023-04-04T03:26:09.105Z,91.5
2023-04-04T03:28:14.580Z,91.6
2023-04-04T03:30:12.065Z,91.7
2023-04-04T03:32:09.597Z,91.8
2023-04-04T03:33:12.238Z,91.9
2023-04-04T03:35:09.732Z,92.1
2023-04-04T03:39:04.719Z,92.3
2023-04-04T03:43:07.580Z,92.5
2023-04-04T03:45:05.055Z,92.4
2023-04-04T03:47:02.531Z,92.4
2023-04-04T03:49:00.037Z,92.4
2023-04-04T03:50:57.500Z,92.4
2023-04-04T03:58:55.462Z,93.2
2023-04-04T04:04:47.770Z,93.5
2023-04-04T04:06:45.264Z,93.6
2023-04-04T04:08:50.643Z,93.8
2023-04-04T04:12:45.698Z,94.1
2023-04-04T04:14:43.185Z,94.2
2023-04-04T04:16:40.650Z,94.3
2023-04-04T04:18:38.151Z,94.3
2023-04-04T04:20:35.620Z,94.2
2023-04-04T04:22:41.081Z,94
2023-04-04T04:24:38.581Z,93.9
2023-04-04T04:27:38.893Z,94.1
2023-04-04T04:31:33.901Z,94.6
2023-04-04T04:33:31.299Z,94.9
2023-04-04T04:35:36.677Z,95.4
2023-04-04T04:39:31.738Z,95.6
2023-04-04T04:45:24.187Z,95.8
2023-04-04T04:53:22.027Z,95.9
2023-04-04T05:07:12.379Z,96.4
2023-04-04T05:09:09.846Z,96.5
2023-04-04T05:11:07.316Z,96.7
2023-04-04T05:13:04.773Z,96.7
2023-04-04T05:15:02.300Z,96.8
2023-04-04T05:17:07.600Z,97.1
2023-04-04T05:19:05.097Z,97.2
2023-04-04T05:21:02.660Z,97.4
2023-04-04T05:23:23.617Z,97.5
2023-04-04T05:25:21.095Z,97.6
2023-04-04T05:29:23.908Z,97.8
2023-04-04T05:31:21.539Z,97.9
2023-04-04T05:33:18.971Z,98
2023-04-04T05:35:16.563Z,98.1
2023-04-04T05:53:01.782Z,98.5
2023-04-04T06:02:57.301Z,98.5
2023-04-04T06:06:52.243Z,98.5
2023-04-04T06:08:53.937Z,98.5
2023-04-04T06:10:55.092Z,98.6
2023-04-04T06:12:52.562Z,98.6
2023-04-04T06:14:50.064Z,98.6
2023-04-04T06:15:52.771Z,98.5
2023-04-04T06:17:50.254Z,98.5
2023-04-04T06:19:47.705Z,98.4
2023-04-04T06:21:45.276Z,98.4
2023-04-04T06:23:50.756Z,98.6
2023-04-04T06:25:48.300Z,98.7
2023-04-04T06:27:45.799Z,98.9
2023-04-04T06:29:43.284Z,98.9
2023-04-04T06:31:40.840Z,98.9
2023-04-04T06:35:35.711Z,98.6
2023-04-04T06:41:36.191Z,98.2
2023-04-04T06:45:31.155Z,98
2023-04-04T06:47:28.698Z,97.8
2023-04-04T06:53:29.038Z,97.4
2023-04-04T06:57:23.993Z,97.6
2023-04-04T06:59:21.538Z,97.5
2023-04-04T07:01:19.020Z,97.5
2023-04-04T07:03:16.499Z,97.4
2023-04-04T07:05:21.870Z,97
2023-04-04T07:09:28.067Z,96.5
2023-04-04T07:10:19.557Z,96.2
2023-04-04T07:12:17.112Z,96
2023-04-04T07:14:14.560Z,95.6
2023-04-04T07:16:12.103Z,95.2
2023-04-04T07:18:17.519Z,94.5
2023-04-04T07:20:15.037Z,94.3
2023-04-04T07:26:07.479Z,93.7
2023-04-04T07:34:05.449Z,91
2023-04-04T07:36:03.015Z,90.5
2023-04-04T07:38:00.478Z,90.3
2023-04-04T07:39:57.979Z,89.8
2023-04-04T07:41:55.508Z,89.7
2023-04-04T07:43:53.019Z,89
2023-04-04T07:45:58.454Z,86.6
2023-04-04T07:47:56.064Z,85.9
2023-04-04T07:51:51.021Z,84.5
2023-04-04T07:55:46.005Z,82.2
2023-04-04T07:57:43.559Z,82
2023-04-04T07:59:48.976Z,81.2
2023-04-04T08:01:46.509Z,81
2023-04-04T08:03:44.417Z,79.7
2023-04-04T08:04:46.800Z,75.5
2023-04-04T08:06:44.279Z,74.9
2023-04-04T08:08:41.831Z,74.6
2023-04-04T08:10:39.549Z,73.8
2023-04-04T08:12:46.355Z,72.2
2023-04-04T08:14:43.850Z,71.6
2023-04-04T08:16:41.380Z,71.5
2023-04-04T08:20:36.457Z,70
2023-04-04T08:22:34.003Z,69.4
2023-04-04T08:30:32.024Z,66.1
2023-04-04T08:32:29.556Z,65.8
2023-04-04T08:34:27.160Z,63.1
2023-04-04T08:36:24.661Z,62.7
2023-04-04T08:38:22.196Z,62.5
2023-04-04T08:42:25.187Z,59.8
2023-04-04T08:44:22.752Z,59.5
2023-04-04T08:46:20.362Z,58.3
2023-04-04T08:58:13.576Z,55.4
2023-04-04T09:00:40.680Z,54.8
2023-04-04T09:04:35.583Z,51.4
2023-04-04T09:10:36.212Z,50.8
2023-04-04T09:18:26.452Z,50.1
2023-04-04T09:20:31.940Z,49.4
2023-04-04T09:22:29.484Z,49.3
2023-04-04T09:24:27.071Z,49.2
2023-04-04T09:30:19.848Z,49
2023-04-04T09:32:17.451Z,48.8
2023-04-04T09:34:22.888Z,48.7
2023-04-04T09:36:20.715Z,48.7
2023-04-04T09:38:18.068Z,48.2
2023-04-04T09:42:13.203Z,47.6
2023-04-04T09:44:10.815Z,47.1
2023-04-04T09:48:13.903Z,46.9
2023-04-04T09:50:11.426Z,46.9
2023-04-04T09:57:06.911Z,47.5
2023-04-04T09:59:05.482Z,48
2023-04-04T10:01:10.051Z,48.5
2023-04-04T10:03:07.575Z,48.8
2023-04-04T10:05:06.551Z,49.1
2023-04-04T10:07:02.743Z,48.9
2023-04-04T10:09:00.321Z,48.9
2023-04-04T10:11:09.696Z,49.2
2023-04-04T10:12:55.497Z,49.3
2023-04-04T10:15:01.010Z,49.2
2023-04-04T10:16:58.557Z,49.3
2023-04-04T10:18:56.142Z,49.3
2023-04-04T10:26:46.509Z,49.3
2023-04-04T10:34:44.792Z,48.4
2023-04-04T10:36:42.401Z,48.2
2023-04-04T10:38:39.958Z,48.2
2023-04-04T10:40:37.660Z,48.1
2023-04-04T10:42:45.148Z,47.3
2023-04-04T10:44:40.655Z,46.9
2023-04-04T10:47:41.043Z,46.2
2023-04-04T10:49:38.600Z,45.7
2023-04-04T10:51:45.222Z,45.7
2023-04-04T10:53:33.851Z,45.8
2023-04-04T10:55:39.551Z,45.5
2023-04-04T10:59:34.492Z,44.4
2023-04-04T11:01:34.385Z,43.2
2023-04-04T11:03:29.653Z,42.9
2023-04-04T11:07:24.867Z,40.5
2023-04-04T11:09:30.421Z,39.7
2023-04-04T11:11:28.020Z,39.8
2023-04-04T11:13:25.645Z,39.6
2023-04-04T11:15:23.256Z,39.7
2023-04-04T11:17:20.865Z,40.4
2023-04-04T11:19:18.431Z,40.4
2023-04-04T11:23:21.585Z,39.7
2023-04-04T11:25:19.185Z,38.6
2023-04-04T11:31:12.001Z,38
2023-04-04T11:33:09.649Z,37.7
2023-04-04T11:41:07.930Z,37.3
2023-04-04T11:42:10.773Z,36.9
2023-04-04T11:48:03.513Z,35.9
2023-04-04T11:54:04.150Z,35.3
2023-04-04T11:56:01.756Z,34.9
2023-04-04T11:57:59.318Z,35.1
2023-04-04T12:01:54.489Z,34.1
2023-04-04T12:04:00.004Z,31.8
2023-04-04T12:05:57.625Z,31.5
2023-04-04T12:07:55.148Z,31.4
2023-04-04T12:15:45.498Z,32.6
2023-04-04T12:17:50.932Z,32.8
2023-04-04T12:19:48.510Z,32.7
2023-04-04T12:21:46.057Z,32.6
2023-04-04T12:23:43.611Z,32.7
2023-04-04T12:25:41.362Z,32.7
2023-04-04T12:29:36.400Z,33
2023-04-04T12:33:39.274Z,33.6
2023-04-04T12:35:36.896Z,33.5
2023-04-04T12:38:03.645Z,33.5
2023-04-04T12:41:58.737Z,34.4
2023-04-04T12:44:04.205Z,34.5
2023-04-04T12:47:59.389Z,34.6
2023-04-04T12:49:56.800Z,34.7
2023-04-04T12:57:54.960Z,33.6
2023-04-04T13:03:47.587Z,32.9
2023-04-04T13:09:40.198Z,33.7
2023-04-04T13:11:45.662Z,34
2023-04-04T13:13:43.239Z,33.9
2023-04-04T13:15:41.005Z,33.4
2023-04-04T13:17:38.360Z,33
2023-04-04T13:21:33.384Z,32.5
2023-04-04T13:23:30.921Z,32.3
2023-04-04T13:25:36.384Z,32
2023-04-04T13:29:31.453Z,31.3
2023-04-04T13:30:34.299Z,31.2
2023-04-04T13:32:31.786Z,31.1
2023-04-04T13:36:26.831Z,30
2023-04-04T13:38:32.330Z,29.2
2023-04-04T13:42:27.344Z,28.6
2023-04-04T13:46:22.393Z,28.2
2023-04-04T13:48:19.896Z,28.4
2023-04-04T13:50:17.420Z,28.3
2023-04-04T13:52:22.850Z,27.7
2023-04-04T13:54:21.921Z,27.7
2023-04-04T13:56:19.777Z,27.6
2023-04-04T13:58:16.875Z,27.2
2023-04-04T14:00:14.375Z,27
2023-04-04T14:02:11.852Z,27.1
2023-04-04T14:04:22.665Z,27
2023-04-04T14:06:14.802Z,26.4
2023-04-04T14:08:12.260Z,26
2023-04-04T14:16:02.203Z,24.7
2023-04-04T14:17:59.675Z,26
2023-04-04T14:20:05.172Z,26
2023-04-04T14:24:00.034Z,25.2
2023-04-04T14:25:02.768Z,24.4
2023-04-04T14:27:00.220Z,24
2023-04-04T14:36:55.520Z,22.5
2023-04-04T14:38:52.952Z,22.3
2023-04-04T14:40:50.399Z,21.9
2023-04-04T14:42:47.855Z,21.6
2023-04-04T14:44:45.312Z,21.6
2023-04-04T14:46:50.749Z,21.5
2023-04-04T14:48:48.245Z,21.3
2023-04-04T14:50:45.625Z,21.4
2023-04-04T14:52:43.092Z,21.9
2023-04-04T14:56:38.011Z,25.6
2023-04-04T14:58:35.519Z,27.1
2023-04-04T15:00:40.959Z,28.6
2023-04-04T15:02:38.524Z,29.2
2023-04-04T15:04:36.094Z,29.1
2023-04-04T15:08:31.043Z,29.9
2023-04-04T15:12:26.139Z,29.6
2023-04-04T15:14:31.665Z,30.1
2023-04-04T15:19:29.597Z,29.8
2023-04-04T15:21:27.138Z,29.9
2023-04-04T15:23:24.748Z,29.5
2023-04-04T15:25:22.374Z,28.9
2023-04-04T15:27:27.836Z,28.3
2023-04-04T15:29:25.454Z,28
2023-04-04T15:31:23.044Z,28
2023-04-04T15:33:20.791Z,28.2
2023-04-04T15:35:18.244Z,28.1
2023-04-04T15:37:15.838Z,28.1
2023-04-04T15:39:13.460Z,28.5
2023-04-04T15:41:18.962Z,28.9
2023-04-04T15:43:16.614Z,29
2023-04-04T15:45:14.200Z,29.5
2023-04-04T15:47:11.787Z,29.7
2023-04-04T15:49:09.402Z,29.8
2023-04-04T15:51:07.003Z,29.9
2023-04-04T15:53:04.619Z,30.1
2023-04-04T15:55:10.148Z,30.1
2023-04-04T15:57:07.744Z,30
2023-04-04T16:01:03.016Z,29.2
2023-04-04T16:06:55.850Z,29.3
2023-04-04T16:09:01.584Z,29.6
2023-04-04T16:12:56.636Z,30.1
2023-04-04T16:15:23.556Z,30.1
2023-04-04T16:17:21.170Z,30.5
2023-04-04T16:19:19.126Z,30.7
2023-04-04T16:21:24.344Z,30.7
2023-04-04T16:23:21.959Z,31
2023-04-04T16:25:19.583Z,31.5
2023-04-04T16:27:17.188Z,31.8
2023-04-04T16:29:14.838Z,31.9
2023-04-04T16:31:12.452Z,31.9
2023-04-04T16:33:10.135Z,32
2023-04-04T16:35:15.581Z,32
2023-04-04T16:39:10.845Z,31.9
2023-04-04T16:41:08.473Z,32
2023-04-04T16:43:06.080Z,32.1
2023-04-04T16:45:03.707Z,32.1
2023-04-04T16:53:02.127Z,33.1
2023-04-04T16:54:59.743Z,33.3
2023-04-04T17:00:52.624Z,33.5
2023-04-04T17:02:58.190Z,34
2023-04-04T17:04:55.735Z,34.2
2023-04-04T17:06:53.363Z,34.6
2023-04-04T17:07:56.122Z,34.7
2023-04-04T17:15:54.550Z,34.3
2023-04-04T17:17:52.174Z,34.4
2023-04-04T17:21:47.409Z,34.5
2023-04-04T17:23:45.014Z,34.3
2023-04-04T17:25:42.661Z,34.2
2023-04-04T17:27:40.263Z,34
2023-04-04T17:29:45.826Z,33.8
2023-04-04T17:31:43.536Z,34
2023-04-04T17:33:41.062Z,34
2023-04-04T17:35:38.686Z,34.1
2023-04-04T17:37:36.315Z,34.2
2023-04-04T17:39:33.900Z,34.4
2023-04-04T17:41:31.524Z,34.6
2023-04-04T17:43:37.041Z,34.9
2023-04-04T17:45:34.664Z,35.2
2023-04-04T17:47:32.360Z,35.4
2023-04-04T17:55:22.753Z,35.4
2023-04-04T17:57:28.261Z,35.7
2023-04-04T18:02:26.322Z,36
2023-04-04T18:04:23.885Z,36.2
2023-04-04T18:06:21.507Z,36.4
2023-04-04T18:08:19.170Z,36.6
2023-04-04T18:10:24.688Z,37
2023-04-04T18:12:22.457Z,37.2
2023-04-04T18:14:19.918Z,37.2
2023-04-04T18:26:13.574Z,38.5
2023-04-04T18:28:11.208Z,38.8
2023-04-04T18:30:08.813Z,39.2
2023-04-04T18:32:06.447Z,39.4
2023-04-04T18:34:04.171Z,39.6
2023-04-04T18:36:01.795Z,40.1
2023-04-04T18:38:07.148Z,40.8
2023-04-04T18:49:52.836Z,41.9
2023-04-04T18:51:58.356Z,42
2023-04-04T18:53:55.956Z,42.4
2023-04-04T18:56:56.375Z,43
2023-04-04T18:58:54.056Z,43
2023-04-04T19:00:51.631Z,43
2023-04-04T19:04:54.813Z,43
2023-04-04T19:06:52.361Z,43.2
2023-04-04T19:08:50.007Z,43.5
2023-04-04T19:10:47.609Z,43.7
2023-04-04T19:12:45.233Z,44
2023-04-04T19:16:40.431Z,45.1
2023-04-04T19:18:45.963Z,46.6
2023-04-04T19:20:43.610Z,47.2
2023-04-04T19:24:38.831Z,48.1
2023-04-04T19:26:36.402Z,48.7
2023-04-04T19:28:33.996Z,49.1
2023-04-04T19:30:31.627Z,49.6
2023-04-04T19:32:37.157Z,50.6
2023-04-04T19:34:34.730Z,51.1
2023-04-04T19:36:33.913Z,51.6
2023-04-04T19:38:31.463Z,52
2023-04-04T19:50:25.053Z,55.1
2023-04-04T19:54:49.610Z,55.3
2023-04-04T19:56:47.246Z,55.3
2023-04-04T19:58:52.787Z,55.4
2023-04-04T20:00:50.363Z,55.5
2023-04-04T20:02:47.985Z,55.7
2023-04-04T20:06:43.112Z,55.8
2023-04-04T20:10:38.407Z,55.8
2023-04-04T20:12:43.834Z,56
2023-04-04T20:14:41.457Z,56.1
2023-04-04T20:16:39.121Z,56.3
2023-04-04T20:18:36.657Z,56.6
2023-04-04T20:20:34.296Z,56.9
2023-04-04T20:22:31.914Z,57.2
2023-04-04T20:24:29.505Z,57.4
2023-04-04T20:26:35.001Z,58
2023-04-04T20:28:32.582Z,58.1
2023-04-04T20:30:30.207Z,58.2
2023-04-04T20:32:27.848Z,58.4
2023-04-04T20:34:25.414Z,58.6
2023-04-04T20:36:23.044Z,58.8
2023-04-04T20:38:20.661Z,59
2023-04-04T20:40:26.125Z,59.7
2023-04-04T20:42:23.731Z,60
2023-04-04T20:44:21.365Z,60.5
2023-04-04T20:45:24.145Z,60.9
2023-04-04T20:47:21.725Z,61.2
2023-04-04T20:49:19.327Z,61.5
2023-04-04T20:51:16.941Z,61.9
2023-04-04T20:53:22.452Z,62.4
2023-04-04T20:55:20.084Z,62.6
2023-04-04T20:57:17.693Z,62.7
2023-04-04T20:59:15.314Z,63
2023-04-04T21:01:12.945Z,63.2
2023-04-04T21:09:11.154Z,64.7
2023-04-04T21:11:08.768Z,64.9
2023-04-04T21:13:06.379Z,65.2
2023-04-04T21:17:01.580Z,65.4
2023-04-04T21:30:52.566Z,63.3
2023-04-04T21:32:50.196Z,63.2
2023-04-04T21:34:55.634Z,62.7
2023-04-04T21:36:53.232Z,62.5
2023-04-04T21:38:50.818Z,62.3
2023-04-04T21:39:53.590Z,62.1
2023-04-04T21:41:51.177Z,62
2023-04-04T21:43:48.743Z,62
2023-04-04T21:45:46.369Z,62.1
2023-04-04T21:47:51.859Z,61.8
2023-04-04T21:49:49.426Z,61.7
2023-04-04T21:51:47.027Z,60.9
2023-04-04T21:55:42.191Z,60.1
2023-04-04T22:05:39.280Z,58.2
2023-04-04T22:09:33.116Z,57.9
2023-04-04T22:11:30.693Z,57.9
2023-04-04T22:13:28.300Z,57.8
2023-04-04T22:17:31.406Z,57.8
2023-04-04T22:19:28.897Z,58.3
2023-04-04T22:23:24.072Z,59.4
2023-04-04T22:27:19.254Z,59.7
2023-04-04T22:29:24.702Z,59.2
2023-04-04T22:31:22.309Z,58.7
2023-04-04T22:33:19.860Z,58.4
2023-04-04T22:34:22.580Z,58.3
2023-04-04T22:38:17.755Z,58.5
2023-04-04T22:40:15.345Z,58.5
2023-04-04T22:42:20.825Z,58.8
2023-04-04T22:46:16.066Z,59
2023-04-04T23:04:02.149Z,61
2023-04-04T23:05:59.681Z,61.2
2023-04-04T23:10:02.793Z,61.7
2023-04-04T23:12:00.258Z,61.8
2023-04-04T23:13:57.851Z,61.9
2023-04-04T23:15:55.423Z,61.9
2023-04-04T23:17:53.135Z,62
2023-04-04T23:19:50.568Z,62.2
2023-04-04T23:21:48.135Z,62.3
2023-04-04T23:30:15.657Z,63.1
2023-04-04T23:36:16.286Z,63.5
2023-04-04T23:38:13.817Z,63.6
2023-04-04T23:46:04.177Z,64.4
2023-04-04T23:48:01.701Z,64.6
2023-04-04T23:50:07.102Z,65.1
2023-04-04T23:52:04.666Z,65.2
2023-04-04T23:59:54.931Z,66.1
